CTN7K LDSP-LJLJ
Flight info
| Callsign | CTN7K |
|---|---|
| Flight time | N/A |
| Altitude | 30000 |
| Route | ZDA DCT EVINI DCT SABAD SABAD2L |
| Aircraft | A319/M-SDE3FGHIRWY/LB1 |
Departure
| Time | 2026-05-06 15:55 |
|---|---|
| Airport | Split Saint Jerome Airport (LDSP) |
Arrival
| Time | N/A |
|---|---|
| Airport | Ljubljana Jože Pučnik Airport (LJLJ) |
| Time | Latitude | Longitude | Altitude | Speed | Heading |
|---|---|---|---|---|---|
| 2026-05-06 15:39 | 43.53759 | 16.29943 | 77 ft | 0 kts | 113° |
| 2026-05-06 15:48 | 43.53761 | 16.29935 | 77 ft | 4 kts | 114° |
| 2026-05-06 15:48 | 43.53774 | 16.29903 | 73 ft | 4 kts | 128° |
| 2026-05-06 15:48 | 43.53793 | 16.29880 | 85 ft | 4 kts | 167° |
| 2026-05-06 15:48 | 43.53806 | 16.29881 | 85 ft | 0 kts | 233° |
| 2026-05-06 15:49 | 43.53807 | 16.29881 | 85 ft | 0 kts | 233° |
| 2026-05-06 15:51 | 43.53806 | 16.29880 | 85 ft | 0 kts | 233° |
| 2026-05-06 15:51 | 43.53797 | 16.29865 | 84 ft | 4 kts | 233° |
| 2026-05-06 15:51 | 43.53774 | 16.29823 | 85 ft | 7 kts | 232° |
| 2026-05-06 15:52 | 43.53738 | 16.29760 | 85 ft | 10 kts | 231° |
| 2026-05-06 15:52 | 43.53692 | 16.29669 | 86 ft | 14 kts | 245° |
| 2026-05-06 15:52 | 43.53696 | 16.29517 | 85 ft | 19 kts | 278° |
| 2026-05-06 15:52 | 43.53638 | 16.29340 | 86 ft | 23 kts | 231° |
| 2026-05-06 15:53 | 43.53525 | 16.29140 | 81 ft | 30 kts | 232° |
| 2026-05-06 15:53 | 43.53391 | 16.28898 | 83 ft | 33 kts | 234° |
| 2026-05-06 15:53 | 43.53259 | 16.28659 | 89 ft | 21 kts | 233° |
| 2026-05-06 15:53 | 43.53221 | 16.28595 | 91 ft | 1 kts | 109° |
| 2026-05-06 15:54 | 43.53233 | 16.28616 | 89 ft | 0 kts | 49° |
| 2026-05-06 15:54 | 43.53436 | 16.28980 | 82 ft | 90 kts | 52° |
| 2026-05-06 15:55 | 43.53954 | 16.29909 | 130 ft | 147 kts | 56° |
| 2026-05-06 15:55 | 43.54598 | 16.31084 | 688 ft | 159 kts | 59° |
| 2026-05-06 15:55 | 43.55252 | 16.32336 | 1382 ft | 168 kts | 59° |
| 2026-05-06 15:55 | 43.55592 | 16.33884 | 2004 ft | 171 kts | 103° |
| 2026-05-06 15:56 | 43.54980 | 16.35188 | 2786 ft | 170 kts | 143° |
| 2026-05-06 15:56 | 43.53929 | 16.35964 | 3593 ft | 171 kts | 152° |
| 2026-05-06 15:56 | 43.52801 | 16.36612 | 4175 ft | 186 kts | 170° |
| 2026-05-06 15:56 | 43.51467 | 16.36215 | 4588 ft | 215 kts | 205° |
| 2026-05-06 15:57 | 43.50114 | 16.35048 | 5072 ft | 242 kts | 210° |
| 2026-05-06 15:57 | 43.48672 | 16.33733 | 5937 ft | 253 kts | 213° |
| 2026-05-06 15:57 | 43.47194 | 16.32370 | 6983 ft | 256 kts | 214° |
| 2026-05-06 15:57 | 43.45694 | 16.30990 | 7943 ft | 263 kts | 214° |
| 2026-05-06 15:58 | 43.44192 | 16.29617 | 9054 ft | 262 kts | 215° |
| 2026-05-06 15:58 | 43.42639 | 16.28204 | 10085 ft | 268 kts | 214° |
| 2026-05-06 15:58 | 43.41045 | 16.26732 | 10555 ft | 291 kts | 218° |
| 2026-05-06 15:58 | 43.39581 | 16.24691 | 11031 ft | 311 kts | 234° |
| 2026-05-06 15:59 | 43.38644 | 16.21982 | 11854 ft | 319 kts | 253° |
| 2026-05-06 15:59 | 43.38419 | 16.18933 | 12800 ft | 325 kts | 273° |
| 2026-05-06 15:59 | 43.39010 | 16.15902 | 13769 ft | 333 kts | 292° |
| 2026-05-06 15:59 | 43.40378 | 16.13302 | 14564 ft | 344 kts | 313° |
| 2026-05-06 16:00 | 43.42240 | 16.11187 | 15323 ft | 350 kts | 319° |
| 2026-05-06 16:00 | 43.44163 | 16.09088 | 16071 ft | 355 kts | 318° |
| 2026-05-06 16:00 | 43.46107 | 16.06974 | 16834 ft | 359 kts | 317° |
| 2026-05-06 16:00 | 43.48081 | 16.04824 | 17589 ft | 364 kts | 317° |
| 2026-05-06 16:01 | 43.50083 | 16.02637 | 18298 ft | 370 kts | 317° |
| 2026-05-06 16:01 | 43.52112 | 16.00417 | 18956 ft | 373 kts | 317° |
| 2026-05-06 16:01 | 43.54148 | 15.98183 | 19658 ft | 376 kts | 317° |
| 2026-05-06 16:01 | 43.56171 | 15.95955 | 20360 ft | 378 kts | 317° |
| 2026-05-06 16:02 | 43.58253 | 15.93658 | 21093 ft | 379 kts | 317° |
| 2026-05-06 16:02 | 43.60292 | 15.91404 | 21805 ft | 381 kts | 316° |
| 2026-05-06 16:02 | 43.62367 | 15.89111 | 22521 ft | 382 kts | 316° |
| 2026-05-06 16:02 | 43.64445 | 15.86812 | 23229 ft | 384 kts | 316° |
| 2026-05-06 16:03 | 43.66541 | 15.84494 | 23859 ft | 386 kts | 316° |
| 2026-05-06 16:03 | 43.68639 | 15.82174 | 24387 ft | 389 kts | 316° |
| 2026-05-06 16:03 | 43.70761 | 15.79823 | 24892 ft | 391 kts | 316° |
| 2026-05-06 16:03 | 43.72884 | 15.77463 | 25375 ft | 394 kts | 315° |
| 2026-05-06 16:04 | 43.75016 | 15.75091 | 25855 ft | 397 kts | 315° |
| 2026-05-06 16:04 | 43.77196 | 15.72664 | 26350 ft | 400 kts | 315° |
| 2026-05-06 16:04 | 43.79377 | 15.70232 | 26829 ft | 403 kts | 315° |
| 2026-05-06 16:04 | 43.81570 | 15.67786 | 27306 ft | 406 kts | 315° |
| 2026-05-06 16:05 | 43.83779 | 15.65321 | 27777 ft | 409 kts | 315° |
| 2026-05-06 16:05 | 43.86014 | 15.62825 | 28264 ft | 412 kts | 315° |
| 2026-05-06 16:05 | 43.88251 | 15.60328 | 28733 ft | 415 kts | 314° |
| 2026-05-06 16:05 | 43.90506 | 15.57807 | 29203 ft | 418 kts | 314° |
| 2026-05-06 16:06 | 43.92013 | 15.56123 | 29503 ft | 420 kts | 314° |
| 2026-05-06 16:06 | 43.94290 | 15.53576 | 29914 ft | 421 kts | 314° |